sensor_id;sensor_type;location;lat;lon;timestamp;P1;durP1;ratioP1;P2;durP2;ratioP2
10729;SDS011;5416;59.258;18.128;2022-09-01T00:00:08;4.18;;;4.07;;
10729;SDS011;5416;59.258;18.128;2022-09-01T00:02:37;3.75;;;3.65;;
10729;SDS011;5416;59.258;18.128;2022-09-01T00:05:05;4.32;;;4.22;;
10729;SDS011;5416;59.258;18.128;2022-09-01T00:07:32;4.57;;;4.47;;
10729;SDS011;5416;59.258;18.128;2022-09-01T00:10:00;4.10;;;4.00;;
10729;SDS011;5416;59.258;18.128;2022-09-01T00:12:28;4.23;;;4.13;;
10729;SDS011;5416;59.258;18.128;2022-09-01T00:14:56;4.10;;;4.00;;
10729;SDS011;5416;59.258;18.128;2022-09-01T00:17:25;4.68;;;4.55;;
10729;SDS011;5416;59.258;18.128;2022-09-01T00:19:54;4.10;;;4.00;;
10729;SDS011;5416;59.258;18.128;2022-09-01T00:22:21;4.07;;;3.97;;
10729;SDS011;5416;59.258;18.128;2022-09-01T00:24:49;3.80;;;3.70;;
10729;SDS011;5416;59.258;18.128;2022-09-01T00:27:16;4.10;;;4.00;;
10729;SDS011;5416;59.258;18.128;2022-09-01T00:29:43;4.20;;;4.10;;
10729;SDS011;5416;59.258;18.128;2022-09-01T00:32:11;4.28;;;4.18;;
10729;SDS011;5416;59.258;18.128;2022-09-01T00:34:39;4.60;;;4.50;;
10729;SDS011;5416;59.258;18.128;2022-09-01T00:37:07;4.88;;;4.68;;
10729;SDS011;5416;59.258;18.128;2022-09-01T00:39:34;4.07;;;3.97;;
10729;SDS011;5416;59.258;18.128;2022-09-01T00:42:01;4.50;;;4.40;;
10729;SDS011;5416;59.258;18.128;2022-09-01T00:44:29;3.70;;;3.60;;
10729;SDS011;5416;59.258;18.128;2022-09-01T00:46:56;4.40;;;4.30;;
10729;SDS011;5416;59.258;18.128;2022-09-01T00:49:26;4.00;;;3.90;;
10729;SDS011;5416;59.258;18.128;2022-09-01T00:51:56;3.83;;;3.72;;
10729;SDS011;5416;59.258;18.128;2022-09-01T00:54:25;4.10;;;4.00;;
10729;SDS011;5416;59.258;18.128;2022-09-01T00:56:53;3.58;;;3.47;;
10729;SDS011;5416;59.258;18.128;2022-09-01T00:59:21;3.95;;;3.85;;
10729;SDS011;5416;59.258;18.128;2022-09-01T01:01:49;4.32;;;4.22;;
10729;SDS011;5416;59.258;18.128;2022-09-01T01:04:17;4.10;;;4.00;;
10729;SDS011;5416;59.258;18.128;2022-09-01T01:06:45;4.15;;;4.05;;
10729;SDS011;5416;59.258;18.128;2022-09-01T01:09:15;4.05;;;3.95;;
10729;SDS011;5416;59.258;18.128;2022-09-01T01:11:43;4.10;;;4.00;;
10729;SDS011;5416;59.258;18.128;2022-09-01T01:14:12;3.30;;;3.20;;
10729;SDS011;5416;59.258;18.128;2022-09-01T01:16:41;3.80;;;3.70;;
10729;SDS011;5416;59.258;18.128;2022-09-01T01:19:10;4.10;;;4.00;;
10729;SDS011;5416;59.258;18.128;2022-09-01T01:22:01;3.72;;;3.63;;
10729;SDS011;5416;59.258;18.128;2022-09-01T01:24:48;4.65;;;4.53;;
10729;SDS011;5416;59.258;18.128;2022-09-01T01:27:16;4.55;;;4.45;;
10729;SDS011;5416;59.258;18.128;2022-09-01T01:29:46;4.38;;;4.28;;
10729;SDS011;5416;59.258;18.128;2022-09-01T01:32:14;4.50;;;4.40;;
10729;SDS011;5416;59.258;18.128;2022-09-01T01:34:42;4.05;;;3.95;;
10729;SDS011;5416;59.258;18.128;2022-09-01T01:37:11;4.07;;;3.97;;
10729;SDS011;5416;59.258;18.128;2022-09-01T01:39:39;3.90;;;3.80;;
10729;SDS011;5416;59.258;18.128;2022-09-01T01:42:09;4.30;;;4.20;;
10729;SDS011;5416;59.258;18.128;2022-09-01T01:44:37;3.90;;;3.80;;
10729;SDS011;5416;59.258;18.128;2022-09-01T01:47:05;3.75;;;3.65;;
10729;SDS011;5416;59.258;18.128;2022-09-01T01:49:34;3.58;;;3.47;;
10729;SDS011;5416;59.258;18.128;2022-09-01T01:52:02;4.20;;;4.10;;
10729;SDS011;5416;59.258;18.128;2022-09-01T01:54:29;4.07;;;3.97;;
10729;SDS011;5416;59.258;18.128;2022-09-01T01:56:57;4.47;;;4.38;;
10729;SDS011;5416;59.258;18.128;2022-09-01T01:59:25;4.00;;;3.90;;
10729;SDS011;5416;59.258;18.128;2022-09-01T02:01:54;3.80;;;3.70;;
10729;SDS011;5416;59.258;18.128;2022-09-01T02:04:21;4.10;;;4.00;;
10729;SDS011;5416;59.258;18.128;2022-09-01T02:06:49;4.18;;;4.07;;
10729;SDS011;5416;59.258;18.128;2022-09-01T02:09:17;4.03;;;3.92;;
10729;SDS011;5416;59.258;18.128;2022-09-01T02:11:45;4.07;;;3.97;;
10729;SDS011;5416;59.258;18.128;2022-09-01T02:14:12;3.75;;;3.65;;
10729;SDS011;5416;59.258;18.128;2022-09-01T02:16:41;4.15;;;4.05;;
10729;SDS011;5416;59.258;18.128;2022-09-01T02:19:08;4.15;;;4.05;;
10729;SDS011;5416;59.258;18.128;2022-09-01T02:21:36;4.20;;;4.10;;
10729;SDS011;5416;59.258;18.128;2022-09-01T02:24:09;4.93;;;4.72;;
10729;SDS011;5416;59.258;18.128;2022-09-01T02:26:37;4.82;;;4.63;;
10729;SDS011;5416;59.258;18.128;2022-09-01T02:29:07;4.13;;;4.03;;
10729;SDS011;5416;59.258;18.128;2022-09-01T02:31:44;4.00;;;3.90;;
10729;SDS011;5416;59.258;18.128;2022-09-01T02:34:11;3.77;;;3.67;;
10729;SDS011;5416;59.258;18.128;2022-09-01T02:36:39;4.07;;;3.97;;
10729;SDS011;5416;59.258;18.128;2022-09-01T02:39:11;3.80;;;3.70;;
10729;SDS011;5416;59.258;18.128;2022-09-01T02:41:38;3.90;;;3.80;;
10729;SDS011;5416;59.258;18.128;2022-09-01T02:44:06;3.85;;;3.75;;
10729;SDS011;5416;59.258;18.128;2022-09-01T02:46:36;3.85;;;3.75;;
10729;SDS011;5416;59.258;18.128;2022-09-01T02:49:07;3.83;;;3.72;;
10729;SDS011;5416;59.258;18.128;2022-09-01T02:51:39;4.35;;;4.25;;
10729;SDS011;5416;59.258;18.128;2022-09-01T02:54:06;4.30;;;4.20;;
10729;SDS011;5416;59.258;18.128;2022-09-01T02:56:34;3.75;;;3.65;;
10729;SDS011;5416;59.258;18.128;2022-09-01T02:59:01;3.90;;;3.80;;
10729;SDS011;5416;59.258;18.128;2022-09-01T03:01:30;3.92;;;3.83;;
10729;SDS011;5416;59.258;18.128;2022-09-01T03:03:59;4.10;;;4.00;;
10729;SDS011;5416;59.258;18.128;2022-09-01T03:06:28;3.50;;;3.40;;
10729;SDS011;5416;59.258;18.128;2022-09-01T03:08:58;3.60;;;3.50;;
10729;SDS011;5416;59.258;18.128;2022-09-01T03:11:26;3.80;;;3.70;;
10729;SDS011;5416;59.258;18.128;2022-09-01T03:13:54;4.03;;;3.93;;
10729;SDS011;5416;59.258;18.128;2022-09-01T03:16:21;4.22;;;4.13;;
10729;SDS011;5416;59.258;18.128;2022-09-01T03:18:48;4.35;;;4.25;;
10729;SDS011;5416;59.258;18.128;2022-09-01T03:21:16;4.07;;;3.97;;
10729;SDS011;5416;59.258;18.128;2022-09-01T03:23:45;4.22;;;4.13;;
10729;SDS011;5416;59.258;18.128;2022-09-01T03:26:13;4.07;;;3.97;;
10729;SDS011;5416;59.258;18.128;2022-09-01T03:28:42;3.95;;;3.85;;
10729;SDS011;5416;59.258;18.128;2022-09-01T03:31:10;4.00;;;3.90;;
10729;SDS011;5416;59.258;18.128;2022-09-01T03:33:37;3.72;;;3.63;;
10729;SDS011;5416;59.258;18.128;2022-09-01T03:36:05;4.40;;;4.30;;
10729;SDS011;5416;59.258;18.128;2022-09-01T03:38:33;3.95;;;3.85;;
10729;SDS011;5416;59.258;18.128;2022-09-01T03:41:02;4.45;;;4.35;;
10729;SDS011;5416;59.258;18.128;2022-09-01T03:43:31;4.00;;;3.90;;
10729;SDS011;5416;59.258;18.128;2022-09-01T03:45:59;4.38;;;4.28;;
10729;SDS011;5416;59.258;18.128;2022-09-01T03:48:27;3.95;;;3.85;;
10729;SDS011;5416;59.258;18.128;2022-09-01T03:50:56;3.97;;;3.87;;
10729;SDS011;5416;59.258;18.128;2022-09-01T03:53:26;4.35;;;4.25;;
10729;SDS011;5416;59.258;18.128;2022-09-01T03:55:54;4.03;;;3.92;;
10729;SDS011;5416;59.258;18.128;2022-09-01T03:58:24;3.90;;;3.80;;
10729;SDS011;5416;59.258;18.128;2022-09-01T04:00:52;4.20;;;4.10;;
10729;SDS011;5416;59.258;18.128;2022-09-01T04:03:20;4.13;;;4.03;;
10729;SDS011;5416;59.258;18.128;2022-09-01T04:05:48;3.63;;;3.53;;
10729;SDS011;5416;59.258;18.128;2022-09-01T04:08:19;3.80;;;3.70;;
10729;SDS011;5416;59.258;18.128;2022-09-01T04:10:47;3.50;;;3.40;;
10729;SDS011;5416;59.258;18.128;2022-09-01T04:13:16;4.10;;;4.00;;
10729;SDS011;5416;59.258;18.128;2022-09-01T04:15:44;4.43;;;4.32;;
10729;SDS011;5416;59.258;18.128;2022-09-01T04:18:12;3.95;;;3.85;;
10729;SDS011;5416;59.258;18.128;2022-09-01T04:20:45;4.10;;;4.00;;
10729;SDS011;5416;59.258;18.128;2022-09-01T04:23:15;4.03;;;3.92;;
10729;SDS011;5416;59.258;18.128;2022-09-01T04:25:46;3.60;;;3.50;;
10729;SDS011;5416;59.258;18.128;2022-09-01T04:28:15;3.42;;;3.33;;
10729;SDS011;5416;59.258;18.128;2022-09-01T04:30:49;3.88;;;3.78;;
10729;SDS011;5416;59.258;18.128;2022-09-01T04:33:19;4.40;;;4.30;;
10729;SDS011;5416;59.258;18.128;2022-09-01T04:35:46;4.20;;;4.10;;
10729;SDS011;5416;59.258;18.128;2022-09-01T04:38:14;4.28;;;4.18;;
10729;SDS011;5416;59.258;18.128;2022-09-01T04:40:42;3.95;;;3.85;;
10729;SDS011;5416;59.258;18.128;2022-09-01T04:43:10;4.00;;;3.90;;
10729;SDS011;5416;59.258;18.128;2022-09-01T04:45:37;3.67;;;3.58;;
10729;SDS011;5416;59.258;18.128;2022-09-01T04:48:06;4.10;;;4.00;;
10729;SDS011;5416;59.258;18.128;2022-09-01T04:50:33;4.30;;;4.20;;
10729;SDS011;5416;59.258;18.128;2022-09-01T04:53:05;4.03;;;3.92;;
10729;SDS011;5416;59.258;18.128;2022-09-01T04:55:37;4.00;;;3.90;;
10729;SDS011;5416;59.258;18.128;2022-09-01T04:58:08;4.65;;;4.53;;
10729;SDS011;5416;59.258;18.128;2022-09-01T05:00:37;4.10;;;4.00;;
10729;SDS011;5416;59.258;18.128;2022-09-01T05:03:05;4.00;;;3.90;;
10729;SDS011;5416;59.258;18.128;2022-09-01T05:05:35;4.07;;;3.97;;
10729;SDS011;5416;59.258;18.128;2022-09-01T05:08:06;3.60;;;3.50;;
10729;SDS011;5416;59.258;18.128;2022-09-01T05:10:38;4.30;;;4.20;;
10729;SDS011;5416;59.258;18.128;2022-09-01T05:13:06;4.45;;;4.35;;
10729;SDS011;5416;59.258;18.128;2022-09-01T05:15:34;4.30;;;4.20;;
10729;SDS011;5416;59.258;18.128;2022-09-01T05:18:02;3.97;;;3.88;;
10729;SDS011;5416;59.258;18.128;2022-09-01T05:20:38;3.92;;;3.83;;
10729;SDS011;5416;59.258;18.128;2022-09-01T05:23:07;4.60;;;4.50;;
10729;SDS011;5416;59.258;18.128;2022-09-01T05:25:37;4.50;;;4.40;;
10729;SDS011;5416;59.258;18.128;2022-09-01T05:28:04;4.00;;;3.90;;
10729;SDS011;5416;59.258;18.128;2022-09-01T05:30:34;4.13;;;4.03;;
10729;SDS011;5416;59.258;18.128;2022-09-01T05:33:04;4.15;;;4.05;;
10729;SDS011;5416;59.258;18.128;2022-09-01T05:35:34;4.07;;;3.97;;
10729;SDS011;5416;59.258;18.128;2022-09-01T05:38:04;4.03;;;3.92;;
10729;SDS011;5416;59.258;18.128;2022-09-01T05:40:34;4.60;;;4.50;;
10729;SDS011;5416;59.258;18.128;2022-09-01T05:43:05;4.55;;;4.45;;
10729;SDS011;5416;59.258;18.128;2022-09-01T05:45:37;4.20;;;4.10;;
10729;SDS011;5416;59.258;18.128;2022-09-01T05:48:08;4.53;;;4.43;;
10729;SDS011;5416;59.258;18.128;2022-09-01T05:50:38;4.50;;;4.40;;
10729;SDS011;5416;59.258;18.128;2022-09-01T05:53:08;4.15;;;4.05;;
10729;SDS011;5416;59.258;18.128;2022-09-01T05:55:41;3.78;;;3.67;;
10729;SDS011;5416;59.258;18.128;2022-09-01T05:58:09;3.97;;;3.88;;
10729;SDS011;5416;59.258;18.128;2022-09-01T06:00:38;3.70;;;3.60;;
10729;SDS011;5416;59.258;18.128;2022-09-01T06:03:06;3.95;;;3.85;;
10729;SDS011;5416;59.258;18.128;2022-09-01T06:05:34;4.28;;;4.18;;
10729;SDS011;5416;59.258;18.128;2022-09-01T06:08:02;4.18;;;4.07;;
10729;SDS011;5416;59.258;18.128;2022-09-01T06:10:31;4.28;;;4.18;;
10729;SDS011;5416;59.258;18.128;2022-09-01T06:13:01;4.38;;;4.28;;
10729;SDS011;5416;59.258;18.128;2022-09-01T06:15:30;4.32;;;4.22;;
10729;SDS011;5416;59.258;18.128;2022-09-01T06:17:57;4.32;;;4.22;;
10729;SDS011;5416;59.258;18.128;2022-09-01T06:20:25;4.00;;;3.90;;
10729;SDS011;5416;59.258;18.128;2022-09-01T06:22:54;4.17;;;4.07;;
10729;SDS011;5416;59.258;18.128;2022-09-01T06:25:21;3.87;;;3.77;;
10729;SDS011;5416;59.258;18.128;2022-09-01T06:27:51;4.00;;;3.90;;
10729;SDS011;5416;59.258;18.128;2022-09-01T06:30:19;3.90;;;3.80;;
10729;SDS011;5416;59.258;18.128;2022-09-01T06:32:49;3.80;;;3.70;;
10729;SDS011;5416;59.258;18.128;2022-09-01T06:35:16;3.87;;;3.77;;
10729;SDS011;5416;59.258;18.128;2022-09-01T06:37:44;3.45;;;3.35;;
10729;SDS011;5416;59.258;18.128;2022-09-01T06:40:13;3.67;;;3.58;;
10729;SDS011;5416;59.258;18.128;2022-09-01T06:42:42;3.55;;;3.45;;
10729;SDS011;5416;59.258;18.128;2022-09-01T06:45:12;3.88;;;3.78;;
10729;SDS011;5416;59.258;18.128;2022-09-01T06:47:40;3.63;;;3.53;;
10729;SDS011;5416;59.258;18.128;2022-09-01T06:50:09;3.35;;;3.25;;
10729;SDS011;5416;59.258;18.128;2022-09-01T06:52:39;3.60;;;3.50;;
10729;SDS011;5416;59.258;18.128;2022-09-01T06:55:07;3.40;;;3.30;;
10729;SDS011;5416;59.258;18.128;2022-09-01T06:57:35;3.58;;;3.47;;
10729;SDS011;5416;59.258;18.128;2022-09-01T07:00:03;3.60;;;3.50;;
10729;SDS011;5416;59.258;18.128;2022-09-01T07:02:41;3.30;;;3.20;;
10729;SDS011;5416;59.258;18.128;2022-09-01T07:05:08;3.77;;;3.67;;
10729;SDS011;5416;59.258;18.128;2022-09-01T07:07:36;3.00;;;2.90;;
10729;SDS011;5416;59.258;18.128;2022-09-01T07:10:03;3.20;;;3.10;;
10729;SDS011;5416;59.258;18.128;2022-09-01T07:12:31;2.90;;;2.80;;
10729;SDS011;5416;59.258;18.128;2022-09-01T07:14:59;3.25;;;3.15;;
10729;SDS011;5416;59.258;18.128;2022-09-01T07:17:26;3.13;;;3.03;;
10729;SDS011;5416;59.258;18.128;2022-09-01T07:19:56;3.20;;;3.10;;
10729;SDS011;5416;59.258;18.128;2022-09-01T07:22:23;3.33;;;3.22;;
10729;SDS011;5416;59.258;18.128;2022-09-01T07:24:50;3.30;;;3.20;;
10729;SDS011;5416;59.258;18.128;2022-09-01T07:27:21;3.38;;;3.28;;
10729;SDS011;5416;59.258;18.128;2022-09-01T07:29:52;3.40;;;3.30;;
10729;SDS011;5416;59.258;18.128;2022-09-01T07:32:21;3.33;;;3.23;;
10729;SDS011;5416;59.258;18.128;2022-09-01T07:34:48;3.10;;;3.00;;
10729;SDS011;5416;59.258;18.128;2022-09-01T07:37:17;3.08;;;2.97;;
10729;SDS011;5416;59.258;18.128;2022-09-01T07:39:47;3.15;;;3.05;;
10729;SDS011;5416;59.258;18.128;2022-09-01T07:42:15;3.10;;;3.00;;
10729;SDS011;5416;59.258;18.128;2022-09-01T07:44:42;2.75;;;2.65;;
10729;SDS011;5416;59.258;18.128;2022-09-01T07:47:10;2.80;;;2.70;;
10729;SDS011;5416;59.258;18.128;2022-09-01T07:49:39;2.92;;;2.83;;
10729;SDS011;5416;59.258;18.128;2022-09-01T07:52:07;2.70;;;2.60;;
10729;SDS011;5416;59.258;18.128;2022-09-01T07:54:35;2.88;;;2.78;;
10729;SDS011;5416;59.258;18.128;2022-09-01T07:57:03;2.83;;;2.72;;
10729;SDS011;5416;59.258;18.128;2022-09-01T07:59:30;3.10;;;3.00;;
10729;SDS011;5416;59.258;18.128;2022-09-01T08:01:59;3.30;;;3.20;;
10729;SDS011;5416;59.258;18.128;2022-09-01T08:04:28;3.15;;;3.05;;
10729;SDS011;5416;59.258;18.128;2022-09-01T08:06:55;3.40;;;3.30;;
10729;SDS011;5416;59.258;18.128;2022-09-01T08:09:23;3.13;;;3.03;;
10729;SDS011;5416;59.258;18.128;2022-09-01T08:11:53;3.20;;;3.10;;
10729;SDS011;5416;59.258;18.128;2022-09-01T08:14:20;3.50;;;3.40;;
10729;SDS011;5416;59.258;18.128;2022-09-01T08:16:47;3.28;;;3.17;;
10729;SDS011;5416;59.258;18.128;2022-09-01T08:19:14;3.25;;;3.15;;
10729;SDS011;5416;59.258;18.128;2022-09-01T08:21:43;3.00;;;2.90;;
10729;SDS011;5416;59.258;18.128;2022-09-01T08:24:10;3.15;;;3.05;;
10729;SDS011;5416;59.258;18.128;2022-09-01T08:26:38;3.50;;;3.40;;
10729;SDS011;5416;59.258;18.128;2022-09-01T08:29:07;3.63;;;3.53;;
10729;SDS011;5416;59.258;18.128;2022-09-01T08:31:34;3.55;;;3.45;;
10729;SDS011;5416;59.258;18.128;2022-09-01T08:34:01;3.00;;;2.90;;
10729;SDS011;5416;59.258;18.128;2022-09-01T08:36:29;3.28;;;3.17;;
10729;SDS011;5416;59.258;18.128;2022-09-01T08:38:57;2.95;;;2.85;;
10729;SDS011;5416;59.258;18.128;2022-09-01T08:41:29;3.30;;;3.20;;
10729;SDS011;5416;59.258;18.128;2022-09-01T08:43:59;3.00;;;2.90;;
10729;SDS011;5416;59.258;18.128;2022-09-01T08:46:32;3.00;;;2.90;;
10729;SDS011;5416;59.258;18.128;2022-09-01T08:49:01;2.80;;;2.70;;
10729;SDS011;5416;59.258;18.128;2022-09-01T08:51:36;3.17;;;3.08;;
10729;SDS011;5416;59.258;18.128;2022-09-01T08:54:08;3.50;;;3.40;;
10729;SDS011;5416;59.258;18.128;2022-09-01T08:59:40;4.30;;;4.20;;
10729;SDS011;5416;59.258;18.128;2022-09-01T09:02:14;4.40;;;4.30;;
10729;SDS011;5416;59.258;18.128;2022-09-01T09:04:49;3.88;;;3.78;;
10729;SDS011;5416;59.258;18.128;2022-09-01T09:07:21;3.80;;;3.70;;
10729;SDS011;5416;59.258;18.128;2022-09-01T09:09:52;3.90;;;3.80;;
10729;SDS011;5416;59.258;18.128;2022-09-01T09:12:28;4.05;;;3.95;;
10729;SDS011;5416;59.258;18.128;2022-09-01T09:15:00;4.07;;;3.97;;
10729;SDS011;5416;59.258;18.128;2022-09-01T09:17:32;4.30;;;4.20;;
10729;SDS011;5416;59.258;18.128;2022-09-01T09:20:02;4.20;;;4.10;;
10729;SDS011;5416;59.258;18.128;2022-09-01T09:22:30;3.80;;;3.70;;
10729;SDS011;5416;59.258;18.128;2022-09-01T09:25:01;3.60;;;3.50;;
10729;SDS011;5416;59.258;18.128;2022-09-01T09:27:29;3.40;;;3.30;;
10729;SDS011;5416;59.258;18.128;2022-09-01T09:29:57;3.45;;;3.35;;
10729;SDS011;5416;59.258;18.128;2022-09-01T09:32:40;3.27;;;3.17;;
10729;SDS011;5416;59.258;18.128;2022-09-01T09:35:15;3.38;;;3.28;;
10729;SDS011;5416;59.258;18.128;2022-09-01T09:37:44;3.10;;;3.00;;
10729;SDS011;5416;59.258;18.128;2022-09-01T09:40:12;3.60;;;3.50;;
10729;SDS011;5416;59.258;18.128;2022-09-01T09:42:41;3.25;;;3.15;;
10729;SDS011;5416;59.258;18.128;2022-09-01T09:45:20;3.08;;;2.97;;
10729;SDS011;5416;59.258;18.128;2022-09-01T09:47:49;3.28;;;3.17;;
10729;SDS011;5416;59.258;18.128;2022-09-01T09:50:19;2.80;;;2.70;;
10729;SDS011;5416;59.258;18.128;2022-09-01T09:52:48;2.90;;;2.80;;
10729;SDS011;5416;59.258;18.128;2022-09-01T09:55:18;2.83;;;2.72;;
10729;SDS011;5416;59.258;18.128;2022-09-01T09:57:46;2.70;;;2.60;;
10729;SDS011;5416;59.258;18.128;2022-09-01T10:00:17;2.85;;;2.75;;
10729;SDS011;5416;59.258;18.128;2022-09-01T10:02:45;3.00;;;2.90;;
10729;SDS011;5416;59.258;18.128;2022-09-01T10:05:23;2.90;;;2.80;;
10729;SDS011;5416;59.258;18.128;2022-09-01T10:07:51;3.13;;;3.03;;
10729;SDS011;5416;59.258;18.128;2022-09-01T10:10:26;3.30;;;3.20;;
10729;SDS011;5416;59.258;18.128;2022-09-01T10:12:54;3.28;;;3.17;;
10729;SDS011;5416;59.258;18.128;2022-09-01T10:15:22;3.67;;;3.58;;
10729;SDS011;5416;59.258;18.128;2022-09-01T10:17:50;3.78;;;3.67;;
10729;SDS011;5416;59.258;18.128;2022-09-01T10:20:19;3.75;;;3.65;;
10729;SDS011;5416;59.258;18.128;2022-09-01T10:22:48;4.18;;;4.07;;
10729;SDS011;5416;59.258;18.128;2022-09-01T10:25:16;4.05;;;3.95;;
10729;SDS011;5416;59.258;18.128;2022-09-01T10:27:46;3.92;;;3.83;;
10729;SDS011;5416;59.258;18.128;2022-09-01T10:30:15;4.00;;;3.90;;
10729;SDS011;5416;59.258;18.128;2022-09-01T10:32:43;3.97;;;3.88;;
10729;SDS011;5416;59.258;18.128;2022-09-01T10:35:13;3.85;;;3.75;;
10729;SDS011;5416;59.258;18.128;2022-09-01T10:37:42;4.10;;;4.00;;
10729;SDS011;5416;59.258;18.128;2022-09-01T10:40:19;4.50;;;4.40;;
10729;SDS011;5416;59.258;18.128;2022-09-01T10:42:48;4.40;;;4.30;;
10729;SDS011;5416;59.258;18.128;2022-09-01T10:45:29;4.40;;;4.30;;
10729;SDS011;5416;59.258;18.128;2022-09-01T10:50:38;4.45;;;4.35;;
10729;SDS011;5416;59.258;18.128;2022-09-01T10:53:06;4.47;;;4.38;;
10729;SDS011;5416;59.258;18.128;2022-09-01T10:55:41;4.82;;;4.63;;
10729;SDS011;5416;59.258;18.128;2022-09-01T10:58:22;4.17;;;4.07;;
10729;SDS011;5416;59.258;18.128;2022-09-01T11:00:53;4.35;;;4.25;;
10729;SDS011;5416;59.258;18.128;2022-09-01T11:06:07;4.28;;;4.18;;
10729;SDS011;5416;59.258;18.128;2022-09-01T11:08:42;4.68;;;4.50;;
10729;SDS011;5416;59.258;18.128;2022-09-01T11:11:22;4.40;;;4.30;;
10729;SDS011;5416;59.258;18.128;2022-09-01T11:13:51;4.47;;;4.38;;
10729;SDS011;5416;59.258;18.128;2022-09-01T11:19:15;4.30;;;4.20;;
10729;SDS011;5416;59.258;18.128;2022-09-01T11:21:45;4.20;;;4.10;;
10729;SDS011;5416;59.258;18.128;2022-09-01T11:29:57;3.90;;;3.80;;
10729;SDS011;5416;59.258;18.128;2022-09-01T11:32:26;4.05;;;3.95;;
10729;SDS011;5416;59.258;18.128;2022-09-01T11:34:57;3.95;;;3.85;;
10729;SDS011;5416;59.258;18.128;2022-09-01T11:37:25;4.07;;;3.97;;
10729;SDS011;5416;59.258;18.128;2022-09-01T11:39:53;3.67;;;3.58;;
10729;SDS011;5416;59.258;18.128;2022-09-01T11:42:23;3.90;;;3.80;;
10729;SDS011;5416;59.258;18.128;2022-09-01T11:44:52;3.70;;;3.60;;
10729;SDS011;5416;59.258;18.128;2022-09-01T11:47:24;3.97;;;3.87;;
10729;SDS011;5416;59.258;18.128;2022-09-01T11:49:54;4.63;;;4.43;;
10729;SDS011;5416;59.258;18.128;2022-09-01T11:52:23;4.80;;;4.60;;
10729;SDS011;5416;59.258;18.128;2022-09-01T11:54:51;4.57;;;4.45;;
10729;SDS011;5416;59.258;18.128;2022-09-01T11:57:20;4.93;;;4.72;;
10729;SDS011;5416;59.258;18.128;2022-09-01T11:59:48;4.45;;;4.35;;
10729;SDS011;5416;59.258;18.128;2022-09-01T12:02:16;4.53;;;4.43;;
10729;SDS011;5416;59.258;18.128;2022-09-01T12:04:45;5.00;;;4.80;;
10729;SDS011;5416;59.258;18.128;2022-09-01T12:07:24;4.53;;;4.43;;
10729;SDS011;5416;59.258;18.128;2022-09-01T12:09:53;4.38;;;4.28;;
10729;SDS011;5416;59.258;18.128;2022-09-01T12:12:25;3.70;;;3.60;;
10729;SDS011;5416;59.258;18.128;2022-09-01T12:14:56;4.18;;;4.07;;
10729;SDS011;5416;59.258;18.128;2022-09-01T12:17:23;4.30;;;4.20;;
10729;SDS011;5416;59.258;18.128;2022-09-01T12:19:52;4.10;;;4.00;;
10729;SDS011;5416;59.258;18.128;2022-09-01T12:22:20;4.13;;;4.03;;
10729;SDS011;5416;59.258;18.128;2022-09-01T12:24:48;4.32;;;4.22;;
10729;SDS011;5416;59.258;18.128;2022-09-01T12:27:16;4.30;;;4.20;;
10729;SDS011;5416;59.258;18.128;2022-09-01T12:29:43;4.43;;;4.32;;
10729;SDS011;5416;59.258;18.128;2022-09-01T12:32:12;4.10;;;4.00;;
10729;SDS011;5416;59.258;18.128;2022-09-01T12:34:43;4.25;;;4.15;;
10729;SDS011;5416;59.258;18.128;2022-09-01T12:37:18;4.28;;;4.18;;
10729;SDS011;5416;59.258;18.128;2022-09-01T12:39:47;4.43;;;4.32;;
10729;SDS011;5416;59.258;18.128;2022-09-01T12:42:22;4.30;;;4.20;;
10729;SDS011;5416;59.258;18.128;2022-09-01T12:44:51;4.32;;;4.22;;
10729;SDS011;5416;59.258;18.128;2022-09-01T12:52:55;4.30;;;4.20;;
10729;SDS011;5416;59.258;18.128;2022-09-01T12:55:24;4.03;;;3.93;;
10729;SDS011;5416;59.258;18.128;2022-09-01T12:57:52;4.28;;;4.18;;
10729;SDS011;5416;59.258;18.128;2022-09-01T13:00:21;4.80;;;4.60;;
10729;SDS011;5416;59.258;18.128;2022-09-01T13:02:49;3.97;;;3.88;;
10729;SDS011;5416;59.258;18.128;2022-09-01T13:05:27;4.18;;;4.07;;
10729;SDS011;5416;59.258;18.128;2022-09-01T13:07:56;4.03;;;3.93;;
10729;SDS011;5416;59.258;18.128;2022-09-01T13:10:25;3.85;;;3.75;;
10729;SDS011;5416;59.258;18.128;2022-09-01T13:12:53;4.10;;;4.00;;
10729;SDS011;5416;59.258;18.128;2022-09-01T13:15:22;4.20;;;4.10;;
10729;SDS011;5416;59.258;18.128;2022-09-01T13:17:50;4.45;;;4.35;;
10729;SDS011;5416;59.258;18.128;2022-09-01T13:20:17;4.22;;;4.13;;
10729;SDS011;5416;59.258;18.128;2022-09-01T13:22:44;4.40;;;4.30;;
10729;SDS011;5416;59.258;18.128;2022-09-01T13:25:14;4.20;;;4.10;;
10729;SDS011;5416;59.258;18.128;2022-09-01T13:27:42;3.85;;;3.75;;
10729;SDS011;5416;59.258;18.128;2022-09-01T13:30:12;4.28;;;4.18;;
10729;SDS011;5416;59.258;18.128;2022-09-01T13:32:39;4.38;;;4.28;;
10729;SDS011;5416;59.258;18.128;2022-09-01T13:35:07;4.20;;;4.10;;
10729;SDS011;5416;59.258;18.128;2022-09-01T13:37:35;4.97;;;4.77;;
10729;SDS011;5416;59.258;18.128;2022-09-01T13:40:03;4.50;;;4.40;;
10729;SDS011;5416;59.258;18.128;2022-09-01T13:42:33;4.80;;;4.60;;
10729;SDS011;5416;59.258;18.128;2022-09-01T13:45:00;4.90;;;4.70;;
10729;SDS011;5416;59.258;18.128;2022-09-01T13:47:27;5.40;;;5.20;;
10729;SDS011;5416;59.258;18.128;2022-09-01T13:49:54;5.28;;;5.07;;
10729;SDS011;5416;59.258;18.128;2022-09-01T13:52:21;5.20;;;5.00;;
10729;SDS011;5416;59.258;18.128;2022-09-01T13:54:49;4.80;;;4.60;;
10729;SDS011;5416;59.258;18.128;2022-09-01T13:57:16;4.50;;;4.40;;
10729;SDS011;5416;59.258;18.128;2022-09-01T13:59:45;5.38;;;5.18;;
10729;SDS011;5416;59.258;18.128;2022-09-01T14:02:12;4.85;;;4.65;;
10729;SDS011;5416;59.258;18.128;2022-09-01T14:04:39;4.82;;;4.63;;
10729;SDS011;5416;59.258;18.128;2022-09-01T14:07:06;4.50;;;4.40;;
10729;SDS011;5416;59.258;18.128;2022-09-01T14:09:33;4.30;;;4.20;;
10729;SDS011;5416;59.258;18.128;2022-09-01T14:12:01;4.70;;;4.55;;
10729;SDS011;5416;59.258;18.128;2022-09-01T14:14:29;5.17;;;4.97;;
10729;SDS011;5416;59.258;18.128;2022-09-01T14:16:58;4.93;;;4.72;;
10729;SDS011;5416;59.258;18.128;2022-09-01T14:19:26;4.30;;;4.20;;
10729;SDS011;5416;59.258;18.128;2022-09-01T14:21:54;4.25;;;4.15;;
10729;SDS011;5416;59.258;18.128;2022-09-01T14:24:21;4.47;;;4.37;;
10729;SDS011;5416;59.258;18.128;2022-09-01T14:26:48;4.60;;;4.47;;
10729;SDS011;5416;59.258;18.128;2022-09-01T14:29:16;4.30;;;4.20;;
10729;SDS011;5416;59.258;18.128;2022-09-01T14:31:43;4.05;;;3.95;;
10729;SDS011;5416;59.258;18.128;2022-09-01T14:34:11;4.85;;;4.65;;
10729;SDS011;5416;59.258;18.128;2022-09-01T14:36:40;4.95;;;4.75;;
10729;SDS011;5416;59.258;18.128;2022-09-01T14:39:08;4.28;;;4.18;;
10729;SDS011;5416;59.258;18.128;2022-09-01T14:41:35;4.40;;;4.30;;
10729;SDS011;5416;59.258;18.128;2022-09-01T14:44:02;4.28;;;4.18;;
10729;SDS011;5416;59.258;18.128;2022-09-01T14:46:30;4.60;;;4.50;;
10729;SDS011;5416;59.258;18.128;2022-09-01T14:48:59;5.13;;;4.93;;
10729;SDS011;5416;59.258;18.128;2022-09-01T14:51:29;4.85;;;4.65;;
10729;SDS011;5416;59.258;18.128;2022-09-01T14:53:56;4.32;;;4.22;;
10729;SDS011;5416;59.258;18.128;2022-09-01T14:56:23;4.43;;;4.32;;
10729;SDS011;5416;59.258;18.128;2022-09-01T14:58:51;4.53;;;4.43;;
10729;SDS011;5416;59.258;18.128;2022-09-01T15:01:23;4.45;;;4.35;;
10729;SDS011;5416;59.258;18.128;2022-09-01T15:03:50;5.10;;;4.90;;
10729;SDS011;5416;59.258;18.128;2022-09-01T15:06:19;4.75;;;4.55;;
10729;SDS011;5416;59.258;18.128;2022-09-01T15:08:48;4.43;;;4.33;;
10729;SDS011;5416;59.258;18.128;2022-09-01T15:11:16;4.68;;;4.50;;
10729;SDS011;5416;59.258;18.128;2022-09-01T15:13:44;5.07;;;4.87;;
10729;SDS011;5416;59.258;18.128;2022-09-01T15:16:14;4.90;;;4.70;;
10729;SDS011;5416;59.258;18.128;2022-09-01T15:18:42;3.90;;;3.80;;
10729;SDS011;5416;59.258;18.128;2022-09-01T15:21:16;4.80;;;4.60;;